Time;durP1;ratioP1;P1;durP2;ratioP2;P2;SDS_P1;SDS_P2;PMS_P1;PMS_P2;Temp;Humidity;BMP_temperature;BMP_pressure;BME280_temperature;BME280_humidity;BME280_pressure;Samples;Min_cycle;Max_cycle;Signal;HPM_P1;HPM_P2
2021/11/13 00:00:47;;;;;;;29.47;20.63;;;4.50;99.90;;;;;;5017582;28;20184;-82
2021/11/13 00:03:13;;;;;;;32.70;19.17;;;4.40;99.90;;;;;;5017925;28;20210;-83
2021/11/13 00:05:41;;;;;;;36.50;20.40;;;4.60;99.90;;;;;;4999416;28;20192;-83
2021/11/13 00:08:07;;;;;;;36.90;20.03;;;4.40;99.90;;;;;;5000435;28;20277;-82
2021/11/13 00:10:33;;;;;;;31.53;20.37;;;4.30;99.90;;;;;;5017533;28;20182;-81
2021/11/13 00:13:00;;;;;;;32.63;20.57;;;4.30;99.90;;;;;;5016797;28;20648;-83
2021/11/13 00:15:27;;;;;;;28.37;19.20;;;4.30;99.90;;;;;;5000393;28;20191;-81
2021/11/13 00:17:53;;;;;;;39.00;19.53;;;4.30;99.90;;;;;;5017820;28;20177;-82
2021/11/13 00:20:21;;;;;;;32.07;18.70;;;4.40;99.90;;;;;;4999098;28;20217;-80
2021/11/13 00:22:47;;;;;;;29.90;18.53;;;4.40;99.90;;;;;;5017950;28;20172;-80
2021/11/13 00:25:13;;;;;;;39.17;19.47;;;4.40;99.90;;;;;;5002641;28;20232;-82
2021/11/13 00:27:40;;;;;;;30.90;19.33;;;4.40;99.90;;;;;;5020923;28;20197;-82
2021/11/13 00:30:08;;;;;;;46.30;21.20;;;4.30;99.90;;;;;;5004217;28;20547;-82
2021/11/13 00:32:34;;;;;;;32.53;19.50;;;4.30;99.90;;;;;;5004396;28;20207;-81
2021/11/13 00:35:00;;;;;;;30.57;19.90;;;4.30;99.90;;;;;;5020589;28;20644;-82
2021/11/13 00:37:25;;;;;;;31.30;20.33;;;4.30;99.90;;;;;;5020892;28;20233;-82
2021/11/13 00:39:51;;;;;;;32.07;19.07;;;4.20;99.90;;;;;;5003233;28;20612;-80
2021/11/13 00:42:17;;;;;;;32.87;19.60;;;4.20;99.90;;;;;;5003082;28;20181;-80
2021/11/13 00:44:42;;;;;;;31.70;18.80;;;4.20;99.90;;;;;;5022641;28;20180;-80
2021/11/13 00:47:08;;;;;;;27.97;18.77;;;4.00;99.90;;;;;;5021640;28;20188;-79
2021/11/13 00:49:35;;;;;;;34.47;19.47;;;3.90;99.90;;;;;;5002800;28;20292;-81
2021/11/13 00:52:01;;;;;;;33.23;19.30;;;3.90;99.90;;;;;;5019696;28;20185;-80
2021/11/13 00:54:27;;;;;;;32.70;19.63;;;3.90;99.90;;;;;;5001641;28;20279;-80
2021/11/13 00:56:53;;;;;;;33.07;19.90;;;3.80;99.90;;;;;;5019862;28;20215;-80
2021/11/13 00:59:18;;;;;;;32.77;20.37;;;3.90;99.90;;;;;;5001888;28;20219;-81
2021/11/13 01:01:44;;;;;;;32.27;20.57;;;3.90;99.90;;;;;;5019350;28;20298;-81
2021/11/13 01:04:10;;;;;;;45.23;19.77;;;4.00;99.90;;;;;;5019615;28;20183;-81
2021/11/13 01:06:36;;;;;;;42.60;20.37;;;4.00;99.90;;;;;;5019511;28;20191;-80
2021/11/13 01:09:03;;;;;;;36.60;21.30;;;3.90;99.90;;;;;;5020137;28;20203;-80
2021/11/13 01:11:29;;;;;;;39.47;21.43;;;4.00;99.90;;;;;;5002226;28;20188;-81
2021/11/13 01:13:55;;;;;;;52.40;21.20;;;3.90;99.90;;;;;;5019365;28;20212;-80
2021/11/13 01:16:21;;;;;;;43.00;22.30;;;3.80;99.90;;;;;;5019603;28;20261;-80
2021/11/13 01:18:47;;;;;;;33.53;20.60;;;3.80;99.90;;;;;;5000543;28;20233;-81
2021/11/13 01:21:13;;;;;;;42.33;22.37;;;3.80;99.90;;;;;;5000297;28;20173;-81
2021/11/13 01:23:39;;;;;;;38.57;21.90;;;3.90;99.90;;;;;;5000764;28;20168;-81
2021/11/13 01:26:06;;;;;;;35.27;21.17;;;3.90;99.90;;;;;;5016563;28;20210;-80
2021/11/13 01:28:32;;;;;;;41.43;23.23;;;3.90;99.90;;;;;;5018183;28;20195;-80
2021/11/13 01:30:58;;;;;;;38.60;22.97;;;3.90;99.90;;;;;;5000946;28;20183;-81
2021/11/13 01:33:24;;;;;;;32.23;21.27;;;3.90;99.90;;;;;;5017915;28;20174;-80
2021/11/13 01:35:50;;;;;;;43.13;22.23;;;3.90;99.90;;;;;;4998993;28;20203;-81
2021/11/13 01:38:17;;;;;;;40.13;21.90;;;4.00;99.90;;;;;;5000775;28;20169;-82
2021/11/13 01:40:44;;;;;;;51.47;22.27;;;3.90;99.90;;;;;;5018331;28;20168;-81
2021/11/13 01:43:10;;;;;;;32.90;21.23;;;3.90;99.90;;;;;;5001211;28;20180;-81
2021/11/13 01:45:36;;;;;;;39.37;22.23;;;3.90;99.90;;;;;;5016495;28;20182;-82
2021/11/13 01:48:02;;;;;;;37.23;22.73;;;4.00;99.90;;;;;;5019847;28;20186;-81
2021/11/13 01:50:34;;;;;;;36.00;22.33;;;4.00;99.90;;;;;;5018606;28;20313;-81
2021/11/13 01:53:00;;;;;;;36.17;22.07;;;4.10;99.90;;;;;;5001450;28;20200;-81
2021/11/13 01:55:29;;;;;;;41.43;22.90;;;4.10;99.90;;;;;;5018029;28;20223;-81
2021/11/13 01:57:56;;;;;;;37.03;23.13;;;4.20;99.90;;;;;;5018393;28;20329;-81
2021/11/13 02:00:33;;;;;;;39.73;22.60;;;4.20;99.90;;;;;;5019171;28;20557;-81
2021/11/13 02:03:01;;;;;;;40.10;20.77;;;4.20;99.90;;;;;;5002339;28;20217;-81
2021/11/13 02:07:54;;;;;;;34.67;20.90;;;4.10;99.90;;;;;;4997600;28;20221;-80
2021/11/13 02:10:21;;;;;;;30.57;20.83;;;4.40;99.90;;;;;;5000661;28;20178;-81
2021/11/13 02:12:47;;;;;;;33.57;21.17;;;4.10;99.90;;;;;;5000426;28;20676;-81
2021/11/13 02:15:13;;;;;;;36.10;21.77;;;4.20;99.90;;;;;;5001016;28;20177;-81
2021/11/13 02:17:39;;;;;;;30.00;19.27;;;4.20;99.90;;;;;;5000123;28;20709;-81
2021/11/13 02:20:17;;;;;;;33.57;21.57;;;4.20;99.90;;;;;;5000805;28;20182;-81
2021/11/13 02:22:43;;;;;;;36.20;21.57;;;4.30;99.90;;;;;;5001079;28;20175;-81
2021/11/13 02:25:08;;;;;;;34.30;21.37;;;4.30;99.90;;;;;;4983359;28;20716;-81
2021/11/13 02:27:34;;;;;;;35.90;21.27;;;4.40;99.90;;;;;;5000440;28;20202;-81
2021/11/13 02:30:00;;;;;;;33.17;21.47;;;4.70;99.90;;;;;;4999750;28;20187;-81
2021/11/13 02:32:25;;;;;;;33.30;21.20;;;4.30;99.90;;;;;;4998889;28;20194;-81
2021/11/13 02:34:51;;;;;;;38.93;21.57;;;4.30;99.90;;;;;;4995604;28;20210;-81
2021/11/13 02:37:17;;;;;;;34.27;21.70;;;4.30;99.90;;;;;;4990182;28;20208;-80
2021/11/13 02:39:43;;;;;;;42.43;21.37;;;4.20;99.90;;;;;;4993836;28;20182;-81
2021/11/13 02:42:09;;;;;;;40.37;21.90;;;4.10;99.90;;;;;;4997318;28;20252;-81
2021/11/13 02:44:36;;;;;;;39.07;23.57;;;4.10;99.90;;;;;;4999034;28;20231;-80
2021/11/13 02:47:02;;;;;;;35.13;22.13;;;4.00;99.90;;;;;;4997767;28;20193;-81
2021/11/13 02:49:30;;;;;;;39.50;23.60;;;4.00;99.90;;;;;;5000038;28;20176;-81
2021/11/13 02:51:56;;;;;;;39.23;24.03;;;4.10;99.90;;;;;;4981553;28;20184;-81
2021/11/13 02:54:21;;;;;;;40.03;23.40;;;4.10;99.90;;;;;;5000024;28;20655;-81
2021/11/13 02:56:47;;;;;;;35.63;22.77;;;4.10;99.90;;;;;;4981697;28;20206;-81
2021/11/13 02:59:13;;;;;;;35.97;22.17;;;4.10;99.90;;;;;;4999911;28;20182;-81
2021/11/13 03:01:39;;;;;;;37.13;22.30;;;4.10;99.90;;;;;;4998666;28;20685;-81
2021/11/13 03:04:05;;;;;;;33.50;21.77;;;4.10;99.90;;;;;;4999638;28;20544;-81
2021/11/13 03:06:31;;;;;;;33.10;21.67;;;4.20;99.90;;;;;;4980777;28;20312;-81
2021/11/13 03:08:56;;;;;;;36.67;21.73;;;4.20;99.90;;;;;;4999808;28;20183;-81
2021/11/13 03:11:22;;;;;;;33.83;22.23;;;4.10;99.90;;;;;;4998375;28;20235;-80
2021/11/13 03:13:50;;;;;;;34.80;22.57;;;4.10;99.90;;;;;;4999601;28;20557;-80
2021/11/13 03:16:17;;;;;;;36.80;22.87;;;4.40;99.90;;;;;;4998386;28;20220;-81
2021/11/13 03:18:43;;;;;;;38.30;22.53;;;4.40;99.90;;;;;;4999859;28;20182;-81
2021/11/13 03:21:09;;;;;;;39.53;22.67;;;4.10;99.90;;;;;;4999681;28;20171;-81
2021/11/13 03:23:45;;;;;;;40.00;23.20;;;4.10;99.90;;;;;;4998080;28;20178;-81
2021/11/13 03:26:20;;;;;;;38.47;22.33;;;4.10;99.90;;;;;;4982146;28;20206;-81
2021/11/13 03:28:51;;;;;;;35.70;22.20;;;4.20;99.90;;;;;;4999350;28;20204;-81
2021/11/13 03:31:17;;;;;;;37.60;22.53;;;4.10;99.90;;;;;;4982494;28;20205;-81
2021/11/13 03:33:44;;;;;;;37.67;21.87;;;4.20;99.90;;;;;;4995313;28;20174;-82
2021/11/13 03:36:10;;;;;;;33.03;20.97;;;4.20;99.90;;;;;;4979548;28;20213;-82
2021/11/13 03:38:38;;;;;;;38.07;22.00;;;4.20;99.90;;;;;;4981451;28;20181;-81
2021/11/13 03:41:04;;;;;;;34.33;21.90;;;4.20;99.90;;;;;;4982188;28;20174;-81
2021/11/13 03:43:34;;;;;;;33.13;19.80;;;4.30;99.90;;;;;;4982424;28;20178;-81
2021/11/13 03:45:59;;;;;;;30.33;19.77;;;4.40;99.90;;;;;;4982761;28;20210;-81
2021/11/13 03:48:25;;;;;;;26.93;18.77;;;4.60;99.90;;;;;;4999603;28;20182;-80
2021/11/13 03:50:51;;;;;;;27.20;18.30;;;4.40;99.90;;;;;;4999564;28;20190;-81
2021/11/13 03:53:16;;;;;;;26.30;18.37;;;4.40;99.90;;;;;;4999451;28;20185;-80
2021/11/13 03:55:42;;;;;;;27.83;18.27;;;4.30;99.90;;;;;;4998975;28;20205;-81
2021/11/13 03:58:08;;;;;;;26.07;18.00;;;4.70;99.90;;;;;;4981726;28;20710;-81
2021/11/13 04:00:34;;;;;;;27.33;19.07;;;4.30;99.90;;;;;;4984630;28;20269;-81
2021/11/13 04:03:00;;;;;;;29.70;19.67;;;4.50;99.90;;;;;;5001719;28;20185;-81
2021/11/13 04:05:26;;;;;;;29.93;19.77;;;4.40;99.90;;;;;;4985100;28;20203;-81
2021/11/13 04:07:52;;;;;;;27.23;18.50;;;4.40;99.90;;;;;;5002443;28;20246;-81
2021/11/13 04:10:18;;;;;;;28.43;18.47;;;4.30;99.90;;;;;;4985294;28;20175;-81
2021/11/13 04:12:44;;;;;;;26.97;18.73;;;4.40;99.90;;;;;;4998824;28;20173;-81
2021/11/13 04:15:11;;;;;;;29.77;18.47;;;4.40;99.90;;;;;;4981289;28;20186;-81
2021/11/13 04:17:38;;;;;;;30.47;18.80;;;4.40;99.90;;;;;;4973564;28;20297;-81
2021/11/13 04:20:06;;;;;;;32.37;20.47;;;4.30;99.90;;;;;;4998525;28;20660;-80
2021/11/13 04:22:32;;;;;;;30.27;19.27;;;4.30;99.90;;;;;;4983628;28;20178;-81
2021/11/13 04:24:58;;;;;;;32.93;19.57;;;4.30;99.90;;;;;;5001613;28;20179;-81
2021/11/13 04:27:23;;;;;;;31.67;19.47;;;4.40;99.90;;;;;;5001942;28;20259;-81
2021/11/13 04:29:49;;;;;;;26.03;18.20;;;4.40;99.90;;;;;;5001203;28;20647;-80
2021/11/13 04:32:16;;;;;;;30.27;18.63;;;4.50;99.90;;;;;;4997649;28;20222;-81
2021/11/13 04:37:16;;;;;;;27.30;19.07;;;4.60;99.90;;;;;;4998655;28;20236;-81
2021/11/13 04:39:42;;;;;;;29.57;18.57;;;4.60;99.90;;;;;;5001447;28;20260;-80
2021/11/13 04:42:09;;;;;;;29.27;18.97;;;4.40;99.90;;;;;;4983604;28;20183;-80
2021/11/13 04:44:36;;;;;;;28.03;20.37;;;4.40;99.90;;;;;;4996203;28;20590;-80
2021/11/13 04:47:02;;;;;;;28.70;18.77;;;4.40;99.90;;;;;;4984123;28;20256;-81
2021/11/13 04:49:28;;;;;;;31.87;19.87;;;4.40;99.90;;;;;;4984762;28;20194;-81
2021/11/13 04:51:54;;;;;;;32.90;19.30;;;4.40;99.90;;;;;;5001100;28;20198;-81
2021/11/13 04:54:19;;;;;;;30.10;19.17;;;4.30;99.90;;;;;;4999840;28;20181;-80
2021/11/13 04:56:45;;;;;;;39.57;20.17;;;4.40;99.90;;;;;;5001352;28;20289;-80
2021/11/13 04:59:10;;;;;;;29.73;19.70;;;4.80;99.90;;;;;;5002799;28;20205;-79
2021/11/13 05:01:36;;;;;;;32.30;19.07;;;4.30;99.90;;;;;;4999588;28;20178;-81
2021/11/13 05:04:02;;;;;;;36.67;20.33;;;4.30;99.90;;;;;;4985513;28;20185;-80
2021/11/13 05:06:31;;;;;;;30.73;19.93;;;4.20;99.90;;;;;;4976332;28;20361;-81
2021/11/13 05:08:57;;;;;;;34.93;20.43;;;4.20;99.90;;;;;;5005590;28;20197;-81
2021/11/13 05:11:24;;;;;;;38.87;21.03;;;4.20;99.90;;;;;;5005824;28;20232;-80
2021/11/13 05:13:50;;;;;;;32.97;20.97;;;4.20;99.90;;;;;;5001793;28;20189;-80
2021/11/13 05:16:16;;;;;;;32.93;20.17;;;4.20;99.90;;;;;;5000888;28;20215;-81
2021/11/13 05:18:41;;;;;;;33.37;21.30;;;4.20;99.90;;;;;;4981286;28;20175;-81
2021/11/13 05:21:07;;;;;;;34.77;22.57;;;4.20;99.90;;;;;;5002226;28;20176;-80
2021/11/13 05:23:33;;;;;;;31.50;20.50;;;4.20;99.90;;;;;;4981275;28;20179;-80
2021/11/13 05:25:59;;;;;;;32.27;19.53;;;4.30;99.90;;;;;;4998596;28;20197;-81
2021/11/13 05:28:25;;;;;;;32.17;20.13;;;4.20;99.90;;;;;;5001498;28;20186;-80
2021/11/13 05:30:51;;;;;;;30.53;19.43;;;4.20;99.90;;;;;;5001584;28;20182;-80
2021/11/13 05:33:17;;;;;;;31.63;19.33;;;4.30;99.90;;;;;;5002049;28;20190;-80
2021/11/13 05:35:42;;;;;;;31.93;19.87;;;4.30;99.90;;;;;;4984714;28;20689;-80
2021/11/13 05:38:08;;;;;;;35.20;20.57;;;4.30;99.90;;;;;;5001449;28;20171;-80
2021/11/13 05:40:34;;;;;;;31.20;18.90;;;4.30;99.90;;;;;;4984251;28;20181;-80
2021/11/13 05:43:00;;;;;;;31.00;19.83;;;4.30;99.90;;;;;;5001605;28;20288;-80
2021/11/13 05:45:26;;;;;;;27.90;18.40;;;4.30;99.90;;;;;;5002564;28;20600;-79
2021/11/13 05:47:52;;;;;;;30.03;18.83;;;4.40;99.90;;;;;;5001864;28;20273;-81
2021/11/13 05:50:19;;;;;;;29.43;18.87;;;4.30;99.90;;;;;;4984567;28;20183;-82
2021/11/13 05:52:46;;;;;;;35.83;19.43;;;4.30;99.90;;;;;;4985101;28;20191;-81
2021/11/13 05:55:14;;;;;;;26.70;17.70;;;4.30;99.90;;;;;;5002129;28;20234;-81
2021/11/13 05:57:40;;;;;;;29.50;18.90;;;4.30;99.90;;;;;;5001425;28;20723;-81
2021/11/13 06:00:12;;;;;;;27.67;17.57;;;4.40;99.90;;;;;;5001897;28;20203;-80
2021/11/13 06:02:38;;;;;;;29.13;19.33;;;4.40;99.90;;;;;;5004929;28;20177;-82
2021/11/13 06:05:04;;;;;;;31.87;18.57;;;4.30;99.90;;;;;;5005965;28;20177;-81
2021/11/13 06:07:30;;;;;;;32.10;19.27;;;4.30;99.90;;;;;;5002586;28;20220;-81
2021/11/13 06:09:56;;;;;;;30.70;19.20;;;4.30;99.90;;;;;;5001672;28;20561;-79
2021/11/13 06:12:21;;;;;;;31.77;18.80;;;4.30;99.90;;;;;;5000277;28;20179;-80
2021/11/13 06:14:47;;;;;;;29.03;18.73;;;4.40;99.90;;;;;;4984945;28;20181;-80
2021/11/13 06:17:14;;;;;;;31.77;19.47;;;4.40;99.90;;;;;;4998358;28;20209;-81
2021/11/13 06:19:41;;;;;;;30.33;19.00;;;4.40;99.90;;;;;;4999650;28;20173;-81
2021/11/13 06:22:06;;;;;;;29.90;18.70;;;4.40;99.90;;;;;;4998858;28;20174;-82
2021/11/13 06:24:32;;;;;;;32.10;20.30;;;4.40;99.90;;;;;;4999892;28;20177;-82
2021/11/13 06:26:58;;;;;;;32.53;20.07;;;4.40;99.90;;;;;;4996554;28;20213;-81
2021/11/13 06:29:24;;;;;;;33.30;21.10;;;4.40;99.90;;;;;;4999311;28;20217;-81
2021/11/13 06:31:50;;;;;;;33.03;20.17;;;4.40;99.90;;;;;;4996313;28;20184;-78
2021/11/13 06:34:16;;;;;;;35.50;21.27;;;4.30;99.90;;;;;;4971211;28;20183;-83
2021/11/13 06:36:42;;;;;;;37.57;21.40;;;4.30;99.90;;;;;;4984993;28;20739;-80
2021/11/13 06:39:08;;;;;;;29.90;20.03;;;4.30;99.90;;;;;;4997442;28;20181;-81
2021/11/13 06:41:34;;;;;;;31.23;19.80;;;4.40;99.90;;;;;;4999315;28;20207;-83
2021/11/13 06:44:00;;;;;;;35.63;20.77;;;4.40;99.90;;;;;;4999430;28;20178;-80
2021/11/13 06:46:26;;;;;;;34.40;19.47;;;4.40;99.90;;;;;;5000699;28;20193;-80
2021/11/13 06:48:52;;;;;;;32.23;20.47;;;4.40;99.90;;;;;;4983877;28;20183;-81
2021/11/13 06:51:19;;;;;;;35.50;19.90;;;4.40;99.90;;;;;;5002377;28;20217;-81
2021/11/13 06:53:44;;;;;;;33.30;20.57;;;4.40;99.90;;;;;;5002839;28;20186;-80
2021/11/13 06:56:10;;;;;;;35.00;22.00;;;4.40;99.90;;;;;;5001399;28;20672;-82
2021/11/13 06:58:37;;;;;;;33.00;20.87;;;4.40;99.90;;;;;;4981330;28;20186;-80
2021/11/13 07:01:04;;;;;;;38.50;22.40;;;4.60;99.90;;;;;;4997486;28;20183;-83
2021/11/13 07:03:30;;;;;;;36.10;22.43;;;4.40;99.90;;;;;;4999097;28;20550;-82
2021/11/13 07:05:56;;;;;;;38.67;22.23;;;4.40;99.90;;;;;;5001237;28;20223;-82
2021/11/13 07:08:22;;;;;;;33.47;20.57;;;4.50;99.90;;;;;;4998798;28;20187;-80
2021/11/13 07:10:52;;;;;;;32.47;20.50;;;4.50;99.90;;;;;;4983274;28;20277;-83
2021/11/13 07:13:19;;;;;;;32.30;20.87;;;4.60;99.90;;;;;;4999909;28;20177;-82
2021/11/13 07:15:45;;;;;;;28.73;19.97;;;4.60;99.90;;;;;;5002022;28;20183;-82
2021/11/13 07:18:11;;;;;;;27.30;18.57;;;4.60;99.90;;;;;;4998561;28;20729;-82
2021/11/13 07:20:37;;;;;;;29.87;19.53;;;4.60;99.90;;;;;;4997163;28;20178;-79
2021/11/13 07:23:04;;;;;;;30.90;19.90;;;4.60;99.90;;;;;;5000954;28;20180;-82
2021/11/13 07:25:32;;;;;;;33.27;20.87;;;4.70;99.90;;;;;;5000429;28;20186;-79
2021/11/13 07:28:04;;;;;;;29.97;19.43;;;4.80;99.90;;;;;;4999882;28;20165;-80
2021/11/13 07:30:41;;;;;;;28.87;19.20;;;4.70;99.90;;;;;;5000504;28;20182;-80
2021/11/13 07:33:08;;;;;;;29.33;19.10;;;4.70;99.90;;;;;;5000183;28;20165;-80
2021/11/13 07:35:40;;;;;;;27.53;19.17;;;4.80;99.90;;;;;;4986535;28;20269;-79
2021/11/13 07:38:06;;;;;;;28.33;19.07;;;4.80;99.90;;;;;;4986817;28;20174;-80
2021/11/13 07:40:33;;;;;;;31.47;19.90;;;4.80;99.90;;;;;;5004459;28;20526;-81
2021/11/13 07:43:00;;;;;;;33.70;21.07;;;4.80;99.90;;;;;;5003474;28;20186;-81
2021/11/13 07:45:31;;;;;;;34.43;20.23;;;4.80;99.90;;;;;;4986611;28;20179;-80
2021/11/13 07:47:57;;;;;;;28.77;19.03;;;4.80;99.90;;;;;;5004682;28;20196;-82
2021/11/13 07:50:24;;;;;;;26.83;18.00;;;4.80;99.90;;;;;;5005141;28;20187;-83
2021/11/13 07:52:50;;;;;;;27.60;19.13;;;4.90;99.90;;;;;;5005769;28;20191;-82
2021/11/13 07:55:17;;;;;;;28.43;18.67;;;4.90;99.90;;;;;;5004232;28;20180;-81
2021/11/13 07:57:44;;;;;;;29.90;18.77;;;4.90;99.90;;;;;;4988062;28;20212;-81
2021/11/13 08:00:13;;;;;;;27.53;18.77;;;4.90;99.90;;;;;;5005268;28;20259;-81
2021/11/13 08:02:38;;;;;;;28.67;18.40;;;4.90;99.90;;;;;;4970374;28;20176;-80
2021/11/13 08:05:05;;;;;;;30.83;19.40;;;4.90;99.90;;;;;;5003396;28;20546;-81
2021/11/13 08:07:31;;;;;;;28.67;19.37;;;5.00;99.90;;;;;;5032114;22;20226;-77
2021/11/13 08:09:57;;;;;;;30.73;18.83;;;5.00;99.90;;;;;;5036784;28;20184;-77
2021/11/13 08:12:23;;;;;;;28.40;19.60;;;5.00;99.90;;;;;;5027808;28;20180;-77
2021/11/13 08:14:48;;;;;;;28.27;18.83;;;5.00;99.90;;;;;;5040436;28;20256;-77
2021/11/13 08:17:14;;;;;;;28.90;19.70;;;5.00;99.90;;;;;;5009561;28;20702;-77
2021/11/13 08:19:40;;;;;;;29.63;19.87;;;5.00;99.90;;;;;;5000334;28;20169;-76
2021/11/13 08:22:05;;;;;;;29.03;19.93;;;5.00;99.90;;;;;;5018962;28;20178;-77
2021/11/13 08:24:32;;;;;;;28.13;20.10;;;5.00;99.90;;;;;;5020545;28;20175;-77
2021/11/13 08:26:58;;;;;;;30.97;19.43;;;5.10;99.90;;;;;;5009475;28;20211;-76
2021/11/13 08:29:23;;;;;;;26.63;19.03;;;5.10;99.90;;;;;;5018898;28;20175;-77
2021/11/13 08:31:49;;;;;;;27.63;19.83;;;5.10;99.90;;;;;;5036610;28;20191;-77
2021/11/13 08:34:15;;;;;;;27.40;18.57;;;5.20;99.90;;;;;;5036469;28;20183;-78
2021/11/13 08:36:41;;;;;;;27.83;18.67;;;5.10;99.90;;;;;;5018351;28;20261;-77
2021/11/13 08:39:07;;;;;;;29.40;19.17;;;5.10;99.90;;;;;;5018832;28;20200;-77
2021/11/13 08:41:33;;;;;;;25.87;19.30;;;5.20;99.90;;;;;;5018518;28;20173;-77
2021/11/13 08:44:00;;;;;;;31.30;19.67;;;5.10;99.90;;;;;;5036554;28;20677;-77
2021/11/13 08:46:25;;;;;;;28.43;19.70;;;5.20;99.90;;;;;;5023111;28;20213;-77
2021/11/13 08:48:51;;;;;;;28.17;20.47;;;5.20;99.90;;;;;;5008875;28;20258;-77
2021/11/13 08:51:17;;;;;;;28.40;19.77;;;5.20;99.90;;;;;;5036577;28;20530;-77
2021/11/13 08:53:47;;;;;;;29.50;19.60;;;5.30;99.90;;;;;;5036697;28;20270;-77
2021/11/13 08:56:13;;;;;;;26.47;19.27;;;5.20;99.90;;;;;;5036239;28;20200;-77
2021/11/13 08:58:39;;;;;;;29.47;20.10;;;5.20;99.90;;;;;;5036400;28;20275;-77
2021/11/13 09:01:06;;;;;;;30.67;21.80;;;5.30;99.90;;;;;;5018240;28;20174;-77
2021/11/13 09:03:37;;;;;;;36.53;23.63;;;5.30;99.90;;;;;;5036560;28;20176;-77
2021/11/13 09:06:06;;;;;;;31.37;21.70;;;5.30;99.90;;;;;;5036151;28;20175;-77
2021/11/13 09:08:32;;;;;;;34.33;21.27;;;5.30;99.90;;;;;;5018622;28;20208;-77
2021/11/13 09:10:58;;;;;;;30.17;20.33;;;5.50;99.90;;;;;;5036255;28;20187;-77
2021/11/13 09:13:26;;;;;;;34.20;21.53;;;5.30;99.90;;;;;;5035900;28;20640;-77
2021/11/13 09:15:53;;;;;;;31.57;21.83;;;5.40;99.90;;;;;;5017745;28;20196;-77
2021/11/13 09:18:19;;;;;;;32.60;21.67;;;5.50;99.90;;;;;;5027876;28;20661;-77
2021/11/13 09:20:44;;;;;;;30.93;20.50;;;5.60;99.90;;;;;;5033686;28;20169;-77
2021/11/13 09:23:13;;;;;;;31.60;20.97;;;5.60;99.90;;;;;;5005560;28;20186;-77
2021/11/13 09:25:40;;;;;;;34.67;20.80;;;5.60;99.90;;;;;;5031663;28;20174;-77
2021/11/13 09:28:06;;;;;;;27.30;20.03;;;5.60;99.90;;;;;;5030639;28;20197;-77
2021/11/13 09:30:34;;;;;;;32.60;21.47;;;5.60;99.90;;;;;;5033846;28;20169;-78
2021/11/13 09:33:00;;;;;;;28.00;20.10;;;5.60;99.90;;;;;;5021554;28;20204;-78
2021/11/13 09:35:27;;;;;;;27.63;19.60;;;5.70;99.90;;;;;;5034831;28;20255;-77
2021/11/13 09:37:54;;;;;;;27.53;19.60;;;5.80;99.90;;;;;;5034784;28;20221;-77
2021/11/13 09:40:21;;;;;;;26.53;19.33;;;5.80;99.90;;;;;;5035002;28;20219;-77
2021/11/13 09:42:49;;;;;;;24.33;17.73;;;5.90;99.90;;;;;;5034725;28;20545;-77
2021/11/13 09:45:15;;;;;;;24.10;17.97;;;6.00;99.90;;;;;;5022083;28;20308;-78
2021/11/13 09:47:46;;;;;;;25.93;18.97;;;5.80;99.90;;;;;;5027726;28;20672;-77
2021/11/13 09:50:12;;;;;;;26.40;18.53;;;5.90;99.90;;;;;;5015414;28;20189;-77
2021/11/13 09:52:40;;;;;;;23.53;18.27;;;5.90;99.90;;;;;;4998210;28;20169;-78
2021/11/13 09:55:08;;;;;;;28.50;19.20;;;5.90;99.90;;;;;;5014886;28;20224;-77
2021/11/13 09:57:37;;;;;;;26.10;18.93;;;5.90;99.90;;;;;;5009906;28;20216;-77
2021/11/13 10:00:07;;;;;;;29.20;20.90;;;5.90;99.90;;;;;;4997178;28;20661;-77
2021/11/13 10:02:33;;;;;;;26.20;18.90;;;5.90;99.90;;;;;;5024055;28;20169;-78
2021/11/13 10:04:59;;;;;;;32.40;20.23;;;5.90;99.90;;;;;;5018638;28;20173;-77
2021/11/13 10:07:24;;;;;;;31.50;20.47;;;6.00;99.90;;;;;;5025027;28;20215;-77
2021/11/13 10:09:50;;;;;;;33.00;21.27;;;5.90;99.90;;;;;;5035274;28;20181;-77
2021/11/13 10:12:16;;;;;;;28.20;20.17;;;6.00;99.90;;;;;;5031219;28;20680;-78
2021/11/13 10:14:43;;;;;;;29.47;19.87;;;6.10;99.90;;;;;;5004921;28;20636;-76
2021/11/13 10:17:25;;;;;;;27.50;20.20;;;6.10;99.90;;;;;;5031744;28;20675;-78
2021/11/13 10:19:52;;;;;;;27.90;19.90;;;6.10;99.90;;;;;;5008885;28;20177;-76
2021/11/13 10:22:18;;;;;;;29.40;18.98;;;6.10;99.90;;;;;;5016736;28;20441;-75
2021/11/13 10:24:46;;;;;;;25.63;19.30;;;6.30;99.90;;;;;;5030408;28;20181;-75
2021/11/13 10:27:13;;;;;;;25.83;18.13;;;6.30;99.90;;;;;;5029187;28;20193;-74
2021/11/13 10:29:39;;;;;;;21.70;17.37;;;6.40;99.90;;;;;;5026652;28;20172;-76
2021/11/13 10:32:08;;;;;;;26.50;19.07;;;6.40;99.90;;;;;;5026911;28;20184;-75
2021/11/13 10:34:40;;;;;;;22.17;16.80;;;6.30;99.90;;;;;;5033657;28;20197;-76
2021/11/13 10:37:09;;;;;;;27.73;18.63;;;6.40;99.90;;;;;;5033632;28;20209;-76
2021/11/13 10:39:38;;;;;;;21.67;16.63;;;6.40;99.90;;;;;;5033444;28;20171;-75
2021/11/13 10:42:07;;;;;;;27.27;18.67;;;6.50;99.90;;;;;;5016711;28;20169;-76
2021/11/13 10:44:47;;;;;;;27.43;19.77;;;6.40;99.90;;;;;;5033635;28;20173;-75
2021/11/13 10:47:17;;;;;;;25.53;18.90;;;6.40;99.90;;;;;;5024766;28;20575;-76
2021/11/13 10:49:44;;;;;;;30.27;17.83;;;6.50;99.90;;;;;;5024584;28;20263;-76
2021/11/13 10:52:11;;;;;;;22.70;16.93;;;6.60;99.90;;;;;;5013657;28;20209;-75
2021/11/13 10:54:40;;;;;;;24.10;17.13;;;6.70;99.90;;;;;;5035159;28;20598;-74
2021/11/13 10:57:07;;;;;;;19.17;16.00;;;6.60;99.90;;;;;;5009225;28;20209;-76
2021/11/13 10:59:39;;;;;;;29.20;17.97;;;6.60;99.90;;;;;;5033276;28;20202;-76
2021/11/13 11:02:11;;;;;;;24.73;16.73;;;6.60;99.90;;;;;;5028538;28;20189;-76
2021/11/13 11:04:40;;;;;;;26.15;20.95;;;6.60;99.90;;;;;;5019804;28;20896;-75
2021/11/13 11:07:15;;;;;;;31.83;18.20;;;6.60;99.90;;;;;;5027066;28;20218;-76
2021/11/13 11:09:46;;;;;;;29.30;18.87;;;6.70;99.90;;;;;;5019106;28;20209;-75
2021/11/13 11:12:17;;;;;;;25.33;18.37;;;6.80;99.90;;;;;;5033731;28;20177;-75
2021/11/13 11:14:47;;;;;;;23.57;18.53;;;6.80;99.90;;;;;;5007281;28;20532;-75
2021/11/13 11:17:17;;;;;;;22.83;17.93;;;6.80;99.90;;;;;;5033270;28;20218;-75
2021/11/13 11:19:47;;;;;;;27.07;18.37;;;6.80;99.90;;;;;;5033238;28;20612;-76
2021/11/13 11:22:18;;;;;;;31.50;18.77;;;6.70;99.90;;;;;;5033405;28;20162;-75
2021/11/13 11:24:54;;;;;;;27.50;17.57;;;6.70;99.90;;;;;;5033424;28;20265;-76
2021/11/13 11:27:24;;;;;;;25.63;18.40;;;6.80;99.90;;;;;;5030004;28;20814;-78
2021/11/13 11:29:54;;;;;;;34.20;19.10;;;6.80;99.90;;;;;;5016250;28;20192;-78
2021/11/13 11:32:29;;;;;;;25.67;16.80;;;6.80;99.90;;;;;;5034560;28;20186;-77
2021/11/13 11:34:58;;;;;;;26.23;18.80;;;6.90;99.90;;;;;;5016280;28;20269;-78
2021/11/13 11:37:36;;;;;;;30.43;19.67;;;6.80;99.90;;;;;;5016084;28;20683;-78
2021/11/13 11:40:05;;;;;;;28.70;19.50;;;6.80;99.90;;;;;;5033825;28;20237;-77
2021/11/13 11:42:31;;;;;;;27.37;19.90;;;6.70;99.90;;;;;;5016177;28;20220;-78
2021/11/13 11:44:59;;;;;;;26.30;18.97;;;6.80;99.90;;;;;;5015895;28;20174;-77
2021/11/13 11:47:27;;;;;;;26.10;18.77;;;6.80;99.90;;;;;;5031961;28;20197;-77
2021/11/13 11:49:55;;;;;;;28.27;18.80;;;6.90;99.90;;;;;;5013297;28;20207;-77
2021/11/13 11:52:23;;;;;;;28.43;19.17;;;6.90;99.90;;;;;;4997949;28;20257;-77
2021/11/13 11:54:49;;;;;;;25.03;19.10;;;6.90;99.90;;;;;;5023100;28;20178;-77
2021/11/13 11:57:18;;;;;;;30.50;20.20;;;7.00;99.90;;;;;;5025770;28;20210;-77
2021/11/13 11:59:45;;;;;;;30.00;19.40;;;6.90;99.90;;;;;;5002019;28;20186;-77
2021/11/13 12:02:13;;;;;;;29.17;19.40;;;7.00;99.90;;;;;;5017782;28;20642;-77
2021/11/13 12:04:40;;;;;;;28.07;19.30;;;7.00;99.90;;;;;;5000916;28;20178;-77
2021/11/13 12:07:07;;;;;;;31.10;20.03;;;7.10;99.90;;;;;;5005796;28;20226;-77
2021/11/13 12:09:33;;;;;;;32.10;21.80;;;7.10;99.90;;;;;;5002667;28;20185;-78
2021/11/13 12:12:20;;;;;;;34.03;21.83;;;6.90;99.90;;;;;;5033412;28;20212;-78
2021/11/13 12:14:47;;;;;;;34.70;21.63;;;6.90;99.90;;;;;;5022937;28;20177;-77
2021/11/13 12:17:30;;;;;;;32.13;22.27;;;6.90;99.90;;;;;;5015862;28;20209;-78
2021/11/13 12:20:04;;;;;;;37.80;22.67;;;6.90;99.90;;;;;;5011227;28;20170;-78
2021/11/13 12:22:46;;;;;;;33.00;22.33;;;6.80;99.90;;;;;;5021487;28;20660;-79
2021/11/13 12:25:19;;;;;;;38.67;24.93;;;6.70;99.90;;;;;;5014887;28;20178;-78
2021/11/13 12:28:13;;;;;;;33.40;23.33;;;6.60;99.90;;;;;;5014662;28;20199;-77
2021/11/13 12:30:40;;;;;;;34.40;23.20;;;6.50;99.90;;;;;;5015543;28;20660;-78
2021/11/13 12:33:40;;;;;;;38.27;24.13;;;6.50;99.90;;;;;;5018286;28;20181;-78
2021/11/13 12:36:11;;;;;;;39.20;25.07;;;6.50;99.90;;;;;;4971434;28;20272;-78
2021/11/13 12:38:45;;;;;;;34.80;23.03;;;6.50;99.90;;;;;;5036047;28;20228;-78
2021/11/13 12:41:15;;;;;;;38.10;24.27;;;6.60;99.90;;;;;;5018046;28;20223;-77